Time;durP1;ratioP1;P1;durP2;ratioP2;P2;SDS_P1;SDS_P2;PMS_P1;PMS_P2;Temp;Humidity;BMP_temperature;BMP_pressure;BME280_temperature;BME280_humidity;BME280_pressure;Samples;Min_cycle;Max_cycle;Signal;HPM_P1;HPM_P2
2023/08/05 02:35:03;;;;;;;6.93;4.37;;;13.20;99.90;;;;;;1945978;70;27115;-89
2023/08/05 02:37:59;;;;;;;6.17;3.87;;;13.10;99.90;;;;;;1964714;72;25162;-89
2023/08/05 02:40:58;;;;;;;7.03;4.47;;;13.00;99.90;;;;;;1950440;72;25284;-89
2023/08/05 03:01:26;;;;;;;25.27;6.67;;;13.00;99.90;;;;;;1941597;72;27205;-88
2023/08/05 03:50:16;;;;;;;9.13;5.23;;;14.30;99.90;;;;;;1946601;72;25325;-88
2023/08/05 05:52:23;;;;;;;22.40;8.40;;;15.70;99.90;;;;;;1925528;73;27115;-89
2023/08/05 06:55:50;;;;;;;18.13;5.77;;;17.90;99.90;;;;;;1777770;80;25246;-89
2023/08/05 06:59:39;;;;;;;18.53;5.97;;;17.70;99.90;;;;;;1774669;80;25746;-89
2023/08/05 10:07:11;;;;;;;9.27;3.30;;;20.10;99.90;;;;;;1840943;76;25304;-89
2023/08/05 11:17:14;;;;;;;9.93;3.20;;;20.80;99.90;;;;;;1953167;72;28224;-87
2023/08/05 11:21:04;;;;;;;15.23;3.30;;;20.90;99.90;;;;;;1934180;72;25321;-88
2023/08/05 11:28:06;;;;;;;9.00;3.23;;;20.30;99.90;;;;;;1937000;72;25172;-88
2023/08/05 12:00:01;;;;;;;6.93;2.80;;;20.50;99.90;;;;;;1831106;77;25282;-88
2023/08/05 12:34:27;;;;;;;6.77;2.10;;;20.70;99.90;;;;;;1945753;73;25217;-88
2023/08/05 13:08:42;;;;;;;4.17;1.90;;;20.30;99.90;;;;;;1934639;71;26933;-88
2023/08/05 13:30:06;;;;;;;16.00;3.87;;;19.10;99.90;;;;;;1905433;75;25160;-87
2023/08/05 13:58:12;;;;;;;9.67;3.20;;;19.70;99.90;;;;;;1944839;72;27067;-88
2023/08/05 14:01:25;;;;;;;6.53;3.00;;;19.90;99.90;;;;;;1908503;73;25240;-88
2023/08/05 14:04:17;;;;;;;7.97;3.00;;;19.90;99.90;;;;;;1855410;76;25296;-88
2023/08/05 14:10:59;;;;;;;8.63;2.50;;;20.20;99.90;;;;;;1929746;73;25610;-88
2023/08/05 14:25:10;;;;;;;9.73;2.97;;;20.20;99.90;;;;;;1926120;73;25164;-88
2023/08/05 14:28:00;;;;;;;20.27;3.63;;;19.70;99.90;;;;;;1897957;75;25282;-88
2023/08/05 14:30:48;;;;;;;9.37;2.90;;;19.30;99.90;;;;;;1922528;73;25676;-88
2023/08/05 14:33:37;;;;;;;14.23;3.10;;;19.30;99.90;;;;;;1925970;73;25235;-88
2023/08/05 14:36:25;;;;;;;9.47;3.07;;;19.10;99.90;;;;;;1895467;73;25278;-87
2023/08/05 14:39:15;;;;;;;9.70;2.97;;;19.00;99.90;;;;;;1908135;73;25255;-87
2023/08/05 14:44:50;;;;;;;9.57;2.87;;;19.50;99.90;;;;;;1921862;72;27592;-87
2023/08/05 14:47:38;;;;;;;9.07;3.10;;;19.70;99.90;;;;;;1888114;75;25695;-88
2023/08/05 14:50:27;;;;;;;7.47;2.70;;;19.40;99.90;;;;;;1903734;75;25287;-88
2023/08/05 14:56:01;;;;;;;16.17;3.17;;;19.40;99.90;;;;;;1925268;72;27694;-88
2023/08/05 15:01:35;;;;;;;6.77;3.00;;;19.40;99.90;;;;;;1943130;72;27101;-88
2023/08/05 15:04:26;;;;;;;11.97;3.27;;;19.30;99.90;;;;;;1896389;75;25261;-88
2023/08/05 15:07:15;;;;;;;7.80;2.80;;;19.30;99.90;;;;;;1833936;76;25296;-87
2023/08/05 15:10:05;;;;;;;7.73;2.57;;;19.20;99.90;;;;;;1873146;75;25249;-87
2023/08/05 15:12:53;;;;;;;10.47;2.90;;;19.30;99.90;;;;;;1882445;75;25672;-87
2023/08/05 15:15:49;;;;;;;10.27;2.80;;;19.30;99.90;;;;;;1866578;75;25232;-88
2023/08/05 15:18:38;;;;;;;5.37;2.40;;;19.40;99.90;;;;;;1869502;75;25257;-88
2023/08/05 15:21:27;;;;;;;8.93;2.90;;;19.40;99.90;;;;;;1879633;75;25258;-87
2023/08/05 15:24:16;;;;;;;13.03;2.60;;;19.30;99.90;;;;;;1869380;75;25323;-88
2023/08/05 15:27:05;;;;;;;6.43;2.33;;;19.30;99.90;;;;;;1880057;75;25300;-88
2023/08/05 15:29:58;;;;;;;13.93;3.00;;;19.40;99.90;;;;;;1882374;75;25661;-87
2023/08/05 15:32:46;;;;;;;11.80;2.67;;;19.40;99.90;;;;;;1899876;75;25220;-87
2023/08/05 15:35:35;;;;;;;9.27;2.40;;;19.50;99.90;;;;;;1826797;78;25249;-87
2023/08/05 15:41:09;;;;;;;7.70;2.20;;;19.60;99.90;;;;;;1943586;72;27474;-88
2023/08/05 15:46:40;;;;;;;5.93;2.30;;;19.40;99.90;;;;;;1888005;74;27124;-87
2023/08/05 15:49:29;;;;;;;8.60;2.10;;;19.50;99.90;;;;;;1792817;78;25308;-87
2023/08/05 15:52:19;;;;;;;10.23;2.87;;;19.50;99.90;;;;;;1814446;78;25260;-87
2023/08/05 15:55:09;;;;;;;7.77;1.90;;;19.30;99.90;;;;;;1802031;78;25721;-87
2023/08/05 15:57:57;;;;;;;7.37;2.50;;;19.40;99.90;;;;;;1799098;78;25390;-87
2023/08/05 16:00:46;;;;;;;8.07;2.43;;;19.40;99.90;;;;;;1778093;78;25276;-87
2023/08/05 16:03:35;;;;;;;12.37;2.63;;;19.20;99.90;;;;;;1816552;76;25842;-87
2023/08/05 16:06:24;;;;;;;7.20;2.60;;;19.20;99.90;;;;;;1805258;77;25815;-88
2023/08/05 16:09:13;;;;;;;5.93;2.40;;;19.40;99.90;;;;;;1803666;78;25819;-87
2023/08/05 16:12:01;;;;;;;4.13;2.40;;;19.30;99.90;;;;;;1804739;78;25266;-87
2023/08/05 16:14:51;;;;;;;7.17;1.90;;;19.30;99.90;;;;;;1804922;78;25613;-87
2023/08/05 16:35:30;;;;;;;9.13;1.80;;;18.80;99.90;;;;;;1957548;72;27415;-88
2023/08/05 16:41:12;;;;;;;8.63;2.03;;;18.90;99.90;;;;;;1940423;72;27008;-88
2023/08/05 16:46:53;;;;;;;11.07;2.17;;;18.90;99.90;;;;;;1958904;72;26993;-87
2023/08/05 16:49:41;;;;;;;6.00;1.97;;;18.80;99.90;;;;;;1874103;75;25255;-88
2023/08/05 16:52:30;;;;;;;11.90;2.13;;;18.80;99.90;;;;;;1866174;75;25227;-87
2023/08/05 16:55:19;;;;;;;7.37;2.10;;;18.70;99.90;;;;;;1857519;75;25319;-88
2023/08/05 16:58:08;;;;;;;6.10;1.90;;;18.70;99.90;;;;;;1873487;76;25243;-88
2023/08/05 17:00:57;;;;;;;6.87;1.80;;;18.50;99.90;;;;;;1880636;75;25258;-88
2023/08/05 17:03:46;;;;;;;6.63;2.00;;;18.50;99.90;;;;;;1880177;75;25658;-88
2023/08/05 17:09:23;;;;;;;9.13;2.00;;;18.50;99.90;;;;;;1957958;72;26996;-87
2023/08/05 17:12:14;;;;;;;9.67;2.20;;;18.50;99.90;;;;;;1890715;75;25211;-88
2023/08/05 17:15:02;;;;;;;5.83;1.90;;;18.50;99.90;;;;;;1882103;75;25752;-87
2023/08/05 17:20:32;;;;;;;5.97;1.87;;;18.30;99.90;;;;;;1945792;72;26993;-88
2023/08/05 17:26:40;;;;;;;6.10;2.10;;;18.20;99.90;;;;;;1940897;72;27441;-87
2023/08/05 17:29:29;;;;;;;10.63;1.90;;;18.10;99.90;;;;;;1945593;72;25250;-88
2023/08/05 17:35:02;;;;;;;12.60;2.20;;;18.20;99.90;;;;;;1936753;72;27126;-88
2023/08/05 17:37:51;;;;;;;5.77;1.80;;;18.00;99.90;;;;;;1894100;75;25246;-88
2023/08/05 17:40:40;;;;;;;10.37;2.23;;;18.00;99.90;;;;;;1903319;75;25276;-88
2023/08/05 17:43:28;;;;;;;5.60;1.80;;;18.00;99.90;;;;;;1875120;76;25213;-88
2023/08/05 17:46:17;;;;;;;5.93;1.70;;;17.90;99.90;;;;;;1872076;76;25778;-88
2023/08/05 17:49:05;;;;;;;7.73;2.33;;;17.70;99.90;;;;;;1861629;76;25243;-88
2023/08/05 17:51:53;;;;;;;8.10;1.93;;;17.60;99.90;;;;;;1863055;76;25230;-88
2023/08/05 17:54:42;;;;;;;8.77;2.20;;;17.40;99.90;;;;;;1853311;76;25572;-88
2023/08/05 17:57:31;;;;;;;6.60;1.87;;;17.40;99.90;;;;;;1860243;76;25324;-88
2023/08/05 18:03:07;;;;;;;10.70;2.10;;;17.20;99.90;;;;;;1946969;72;27127;-88
2023/08/05 18:05:56;;;;;;;7.30;2.07;;;17.20;99.90;;;;;;1927495;73;25353;-88
2023/08/05 18:08:46;;;;;;;11.43;2.10;;;17.10;99.90;;;;;;1915691;73;25308;-88
2023/08/05 18:11:34;;;;;;;2.43;1.70;;;17.10;99.90;;;;;;1921298;73;25250;-88
2023/08/05 18:17:04;;;;;;;2.80;1.67;;;17.10;99.90;;;;;;1937927;72;27325;-88
2023/08/05 18:19:53;;;;;;;8.07;1.40;;;17.10;99.90;;;;;;1923847;73;25211;-88
2023/08/05 18:22:42;;;;;;;3.20;1.80;;;17.10;99.90;;;;;;1931425;73;25320;-88
2023/08/05 18:25:31;;;;;;;6.83;1.80;;;17.10;99.90;;;;;;1946987;73;25226;-89
2023/08/05 18:28:19;;;;;;;4.73;1.80;;;17.20;99.90;;;;;;1943284;73;25302;-89
2023/08/05 18:31:08;;;;;;;6.80;1.70;;;17.20;99.90;;;;;;1923547;73;25819;-88
2023/08/05 18:33:57;;;;;;;4.97;1.70;;;17.20;99.90;;;;;;1942060;73;25206;-88
2023/08/05 18:36:45;;;;;;;4.33;1.70;;;17.20;99.90;;;;;;1938021;73;25245;-88
2023/08/05 18:39:36;;;;;;;6.83;1.90;;;17.20;99.90;;;;;;1939212;73;25299;-89
2023/08/05 18:42:24;;;;;;;6.77;1.80;;;17.20;99.90;;;;;;1917290;73;25240;-89
2023/08/05 18:47:52;;;;;;;6.00;1.90;;;17.20;99.90;;;;;;1940904;72;26989;-89
2023/08/05 18:50:40;;;;;;;5.30;1.90;;;17.20;99.90;;;;;;1932615;73;25771;-88
2023/08/05 18:53:29;;;;;;;9.87;1.90;;;17.20;99.90;;;;;;1928448;73;25245;-88
2023/08/05 18:56:17;;;;;;;3.40;1.70;;;17.10;99.90;;;;;;1945078;73;25217;-88
2023/08/05 18:59:07;;;;;;;7.37;1.90;;;17.00;99.90;;;;;;1938062;73;25244;-89
2023/08/05 19:01:55;;;;;;;14.00;2.00;;;16.90;99.90;;;;;;1916603;73;25356;-88
2023/08/05 19:04:44;;;;;;;8.47;2.10;;;16.90;99.90;;;;;;1912700;73;25246;-88
2023/08/05 19:07:33;;;;;;;11.83;1.90;;;16.70;99.90;;;;;;1934464;73;25891;-88
2023/08/05 19:10:22;;;;;;;2.70;1.60;;;16.60;99.90;;;;;;1909640;73;25271;-89
2023/08/05 19:16:06;;;;;;;10.20;2.17;;;16.60;99.90;;;;;;1962568;71;27562;-88
2023/08/05 19:18:54;;;;;;;4.47;2.00;;;16.50;99.90;;;;;;1952050;72;25279;-88
2023/08/05 19:21:44;;;;;;;6.97;4.63;;;16.40;99.90;;;;;;1963745;72;25176;-88
2023/08/05 19:24:32;;;;;;;7.40;2.47;;;16.30;99.90;;;;;;1977460;72;25251;-89
2023/08/05 19:27:23;;;;;;;5.57;2.07;;;16.30;99.90;;;;;;1958457;72;25880;-88
2023/08/05 19:30:13;;;;;;;4.63;2.60;;;16.30;99.90;;;;;;1953091;72;25240;-88
2023/08/05 19:33:02;;;;;;;4.20;2.37;;;16.20;99.90;;;;;;1979399;72;25298;-88
2023/08/05 19:38:44;;;;;;;8.10;2.77;;;16.10;99.90;;;;;;1947086;72;27764;-88
2023/08/05 19:44:47;;;;;;;8.80;2.17;;;16.00;99.90;;;;;;1975166;71;27052;-89
2023/08/05 20:01:32;;;;;;;14.20;4.83;;;15.80;99.90;;;;;;1894903;74;26943;-88
2023/08/05 20:21:08;;;;;;;7.30;3.60;;;15.60;99.90;;;;;;1906966;74;27526;-89
2023/08/05 20:23:58;;;;;;;12.50;3.00;;;15.50;99.90;;;;;;1856706;76;25261;-88
2023/08/05 20:29:38;;;;;;;9.47;1.90;;;15.40;99.90;;;;;;1939820;72;26935;-89
2023/08/05 20:32:27;;;;;;;7.07;2.37;;;15.30;99.90;;;;;;1930390;73;25233;-89
2023/08/05 20:35:16;;;;;;;3.93;2.07;;;15.30;99.90;;;;;;1948268;72;25607;-88
2023/08/05 20:38:06;;;;;;;4.77;1.90;;;15.30;99.90;;;;;;1940652;73;25736;-89
2023/08/05 20:40:56;;;;;;;7.13;1.87;;;15.30;99.90;;;;;;1943806;73;26282;-88
2023/08/05 20:43:44;;;;;;;5.27;1.80;;;15.20;99.90;;;;;;1935268;73;25729;-88
2023/08/05 20:46:33;;;;;;;7.10;2.47;;;15.20;99.90;;;;;;1946422;73;25305;-89
2023/08/05 20:52:10;;;;;;;8.97;4.17;;;15.00;99.90;;;;;;1949995;72;27589;-89
2023/08/05 20:54:59;;;;;;;5.10;2.60;;;14.90;99.90;;;;;;1929494;72;25221;-89
2023/08/05 20:57:48;;;;;;;9.83;2.50;;;14.90;99.90;;;;;;1946572;73;25265;-89
2023/08/05 21:00:36;;;;;;;6.90;2.43;;;14.90;99.90;;;;;;1925740;73;25258;-89
2023/08/05 21:03:25;;;;;;;12.03;2.93;;;14.80;99.90;;;;;;1938055;73;25324;-89
2023/08/05 21:06:14;;;;;;;10.03;3.40;;;14.70;99.90;;;;;;1940642;73;25242;-89
2023/08/05 21:12:55;;;;;;;16.90;4.97;;;14.60;99.90;;;;;;1972187;72;26963;-88
2023/08/05 21:15:43;;;;;;;12.57;3.60;;;14.40;99.90;;;;;;2061033;68;25163;-88
2023/08/05 21:18:33;;;;;;;4.67;2.40;;;14.30;99.90;;;;;;2060151;68;25262;-88
2023/08/05 21:21:22;;;;;;;5.00;1.93;;;14.30;99.90;;;;;;2043219;69;25192;-88
2023/08/05 21:24:11;;;;;;;5.20;2.30;;;14.40;99.90;;;;;;2065990;68;25197;-88
2023/08/05 21:29:47;;;;;;;5.53;2.10;;;14.50;99.90;;;;;;1958108;72;27362;-88
2023/08/05 21:32:36;;;;;;;7.53;2.80;;;14.50;99.90;;;;;;1905751;73;25254;-89
2023/08/05 21:35:25;;;;;;;20.20;4.00;;;14.60;99.90;;;;;;1876704;75;25996;-88
2023/08/05 21:38:13;;;;;;;7.50;3.23;;;14.60;99.90;;;;;;1854426;77;25334;-88
2023/08/05 21:43:45;;;;;;;7.77;2.30;;;14.60;99.90;;;;;;1923443;72;27063;-88
2023/08/05 21:46:34;;;;;;;9.50;2.50;;;14.60;99.90;;;;;;1886523;75;25420;-88
2023/08/05 21:49:24;;;;;;;8.40;2.50;;;14.60;99.90;;;;;;1894502;74;25727;-88
2023/08/05 21:54:58;;;;;;;9.40;3.40;;;14.70;99.90;;;;;;1957527;72;26950;-88
2023/08/05 21:57:47;;;;;;;15.50;3.53;;;14.60;99.90;;;;;;1937091;73;25262;-88
2023/08/05 22:00:36;;;;;;;10.70;3.83;;;14.50;99.90;;;;;;1923178;73;25252;-88
2023/08/05 22:03:25;;;;;;;12.23;3.97;;;14.50;99.90;;;;;;1909648;74;25295;-89
2023/08/05 22:06:13;;;;;;;13.50;4.37;;;14.40;99.90;;;;;;1858438;76;25288;-88
2023/08/05 22:09:04;;;;;;;18.47;5.17;;;14.30;99.90;;;;;;1889041;75;25547;-88
2023/08/05 22:11:52;;;;;;;25.63;6.60;;;14.30;99.90;;;;;;1851218;76;25315;-88
2023/08/05 22:14:41;;;;;;;23.97;6.53;;;14.10;99.90;;;;;;1883045;75;25226;-88
2023/08/05 22:17:31;;;;;;;16.70;4.80;;;14.00;99.90;;;;;;1871661;75;25319;-88
2023/08/05 22:23:40;;;;;;;12.63;3.53;;;14.00;99.90;;;;;;1974617;71;27676;-88
2023/08/05 22:26:29;;;;;;;12.43;4.40;;;14.00;99.90;;;;;;2000689;70;25203;-88
2023/08/05 22:29:18;;;;;;;20.23;4.13;;;14.00;99.90;;;;;;2015081;70;25213;-89
2023/08/05 22:32:08;;;;;;;20.93;4.23;;;14.00;99.90;;;;;;2012366;70;25227;-89
2023/08/05 22:34:58;;;;;;;20.73;4.43;;;14.00;99.90;;;;;;2012147;70;25256;-89
2023/08/05 22:37:46;;;;;;;16.97;4.70;;;13.90;99.90;;;;;;1995485;70;25799;-88
2023/08/05 22:40:38;;;;;;;19.50;5.67;;;13.80;99.90;;;;;;2029605;70;25191;-89
2023/08/05 22:43:26;;;;;;;27.60;6.20;;;13.60;99.90;;;;;;1994797;72;26097;-89
2023/08/05 22:46:15;;;;;;;22.10;5.83;;;13.50;99.90;;;;;;1972872;72;25194;-88
2023/08/05 22:49:04;;;;;;;24.30;6.30;;;13.40;99.90;;;;;;1994210;72;25313;-89
2023/08/05 23:56:47;;;;;;;8.17;3.77;;;11.60;99.90;;;;;;1909452;73;27119;-88
